sensor_id;sensor_type;location;lat;lon;timestamp;temperature;humidity
1103;DHT22;538;42.654;23.376;2022-09-23T00:01:06;10.10;46.30
1103;DHT22;538;42.654;23.376;2022-09-23T00:03:40;10.10;45.30
1103;DHT22;538;42.654;23.376;2022-09-23T00:06:11;10.10;45.10
1103;DHT22;538;42.654;23.376;2022-09-23T00:08:39;10.00;45.20
1103;DHT22;538;42.654;23.376;2022-09-23T00:11:08;9.90;46.60
1103;DHT22;538;42.654;23.376;2022-09-23T00:13:38;9.70;47.20
1103;DHT22;538;42.654;23.376;2022-09-23T00:16:08;9.80;49.30
1103;DHT22;538;42.654;23.376;2022-09-23T00:18:36;9.80;49.60
1103;DHT22;538;42.654;23.376;2022-09-23T00:21:04;9.80;51.20
1103;DHT22;538;42.654;23.376;2022-09-23T00:23:31;9.70;51.40
1103;DHT22;538;42.654;23.376;2022-09-23T00:26:00;9.70;51.20
1103;DHT22;538;42.654;23.376;2022-09-23T00:28:27;9.70;52.70
1103;DHT22;538;42.654;23.376;2022-09-23T00:30:56;9.70;52.60
1103;DHT22;538;42.654;23.376;2022-09-23T00:33:23;9.50;54.10
1103;DHT22;538;42.654;23.376;2022-09-23T00:35:50;9.60;54.30
1103;DHT22;538;42.654;23.376;2022-09-23T00:38:17;9.40;54.10
1103;DHT22;538;42.654;23.376;2022-09-23T00:40:44;9.40;53.70
1103;DHT22;538;42.654;23.376;2022-09-23T00:43:12;9.20;52.90
1103;DHT22;538;42.654;23.376;2022-09-23T00:45:40;9.20;52.60
1103;DHT22;538;42.654;23.376;2022-09-23T00:48:14;9.00;52.30
1103;DHT22;538;42.654;23.376;2022-09-23T00:50:46;9.00;52.30
1103;DHT22;538;42.654;23.376;2022-09-23T00:53:17;9.00;52.30
1103;DHT22;538;42.654;23.376;2022-09-23T00:55:49;7.70;51.10
1103;DHT22;538;42.654;23.376;2022-09-23T00:58:20;8.80;52.30
1103;DHT22;538;42.654;23.376;2022-09-23T01:00:49;8.70;53.80
1103;DHT22;538;42.654;23.376;2022-09-23T01:03:18;8.70;54.20
1103;DHT22;538;42.654;23.376;2022-09-23T01:05:47;8.70;55.10
1103;DHT22;538;42.654;23.376;2022-09-23T01:08:15;8.60;54.70
1103;DHT22;538;42.654;23.376;2022-09-23T01:10:48;8.50;54.60
1103;DHT22;538;42.654;23.376;2022-09-23T01:13:23;8.40;54.90
1103;DHT22;538;42.654;23.376;2022-09-23T01:15:56;8.30;56.70
1103;DHT22;538;42.654;23.376;2022-09-23T01:18:36;8.10;57.30
1103;DHT22;538;42.654;23.376;2022-09-23T01:21:16;8.10;56.20
1103;DHT22;538;42.654;23.376;2022-09-23T01:24:34;7.90;54.50
1103;DHT22;538;42.654;23.376;2022-09-23T01:27:13;7.90;56.40
1103;DHT22;538;42.654;23.376;2022-09-23T01:30:31;7.90;55.40
1103;DHT22;538;42.654;23.376;2022-09-23T01:33:04;7.90;56.10
1103;DHT22;538;42.654;23.376;2022-09-23T01:35:42;7.80;56.70
1103;DHT22;538;42.654;23.376;2022-09-23T01:38:22;7.80;57.20
1103;DHT22;538;42.654;23.376;2022-09-23T01:40:56;7.60;58.00
1103;DHT22;538;42.654;23.376;2022-09-23T01:43:33;7.80;59.10
1103;DHT22;538;42.654;23.376;2022-09-23T01:46:08;7.70;58.60
1103;DHT22;538;42.654;23.376;2022-09-23T01:48:40;7.80;57.90
1103;DHT22;538;42.654;23.376;2022-09-23T01:51:13;7.80;58.70
1103;DHT22;538;42.654;23.376;2022-09-23T01:53:44;7.80;58.70
1103;DHT22;538;42.654;23.376;2022-09-23T01:56:18;7.80;59.50
1103;DHT22;538;42.654;23.376;2022-09-23T01:58:53;7.70;59.10
1103;DHT22;538;42.654;23.376;2022-09-23T02:01:27;7.80;58.00
1103;DHT22;538;42.654;23.376;2022-09-23T02:04:00;7.80;58.30
1103;DHT22;538;42.654;23.376;2022-09-23T02:06:32;7.90;59.20
1103;DHT22;538;42.654;23.376;2022-09-23T02:09:04;7.80;60.20
1103;DHT22;538;42.654;23.376;2022-09-23T02:11:34;7.80;60.10
1103;DHT22;538;42.654;23.376;2022-09-23T02:14:05;7.90;60.10
1103;DHT22;538;42.654;23.376;2022-09-23T02:16:40;7.90;59.80
1103;DHT22;538;42.654;23.376;2022-09-23T02:19:12;7.80;60.70
1103;DHT22;538;42.654;23.376;2022-09-23T02:21:43;7.70;62.20
1103;DHT22;538;42.654;23.376;2022-09-23T02:24:14;7.70;62.20
1103;DHT22;538;42.654;23.376;2022-09-23T02:26:47;7.70;62.60
1103;DHT22;538;42.654;23.376;2022-09-23T02:29:20;7.70;62.90
1103;DHT22;538;42.654;23.376;2022-09-23T02:31:55;7.60;62.50
1103;DHT22;538;42.654;23.376;2022-09-23T02:34:38;7.50;65.50
1103;DHT22;538;42.654;23.376;2022-09-23T02:37:15;7.60;65.90
1103;DHT22;538;42.654;23.376;2022-09-23T02:39:53;7.50;66.90
1103;DHT22;538;42.654;23.376;2022-09-23T02:42:30;7.60;66.40
1103;DHT22;538;42.654;23.376;2022-09-23T02:44:59;7.40;67.40
1103;DHT22;538;42.654;23.376;2022-09-23T02:47:30;7.40;69.70
1103;DHT22;538;42.654;23.376;2022-09-23T02:49:57;7.40;71.30
1103;DHT22;538;42.654;23.376;2022-09-23T02:52:25;7.40;71.00
1103;DHT22;538;42.654;23.376;2022-09-23T02:54:53;7.20;71.10
1103;DHT22;538;42.654;23.376;2022-09-23T02:57:21;7.10;71.10
1103;DHT22;538;42.654;23.376;2022-09-23T02:59:48;7.10;72.20
1103;DHT22;538;42.654;23.376;2022-09-23T03:02:39;7.10;72.00
1103;DHT22;538;42.654;23.376;2022-09-23T03:05:20;7.10;70.70
1103;DHT22;538;42.654;23.376;2022-09-23T03:07:56;7.10;71.90
1103;DHT22;538;42.654;23.376;2022-09-23T03:10:35;7.10;72.50
1103;DHT22;538;42.654;23.376;2022-09-23T03:13:13;7.20;71.80
1103;DHT22;538;42.654;23.376;2022-09-23T03:15:48;7.10;70.40
1103;DHT22;538;42.654;23.376;2022-09-23T03:18:22;7.00;71.40
1103;DHT22;538;42.654;23.376;2022-09-23T03:20:56;7.00;71.10
1103;DHT22;538;42.654;23.376;2022-09-23T03:23:27;6.90;71.60
1103;DHT22;538;42.654;23.376;2022-09-23T03:25:59;7.10;72.70
1103;DHT22;538;42.654;23.376;2022-09-23T03:28:29;7.20;72.60
1103;DHT22;538;42.654;23.376;2022-09-23T03:30:58;7.00;72.30
1103;DHT22;538;42.654;23.376;2022-09-23T03:33:27;7.00;71.90
1103;DHT22;538;42.654;23.376;2022-09-23T03:35:57;7.00;71.80
1103;DHT22;538;42.654;23.376;2022-09-23T03:38:44;6.90;70.80
1103;DHT22;538;42.654;23.376;2022-09-23T03:41:18;6.90;71.80
1103;DHT22;538;42.654;23.376;2022-09-23T03:43:48;6.70;72.50
1103;DHT22;538;42.654;23.376;2022-09-23T03:46:17;6.80;72.80
1103;DHT22;538;42.654;23.376;2022-09-23T03:48:46;6.80;72.50
1103;DHT22;538;42.654;23.376;2022-09-23T03:51:19;6.90;73.30
1103;DHT22;538;42.654;23.376;2022-09-23T03:53:48;6.70;74.30
1103;DHT22;538;42.654;23.376;2022-09-23T03:56:15;6.80;74.10
1103;DHT22;538;42.654;23.376;2022-09-23T03:58:42;6.70;74.50
1103;DHT22;538;42.654;23.376;2022-09-23T04:01:11;6.70;75.50
1103;DHT22;538;42.654;23.376;2022-09-23T04:03:39;6.70;76.70
1103;DHT22;538;42.654;23.376;2022-09-23T04:06:07;6.60;76.70
1103;DHT22;538;42.654;23.376;2022-09-23T04:08:34;6.60;78.30
1103;DHT22;538;42.654;23.376;2022-09-23T04:11:02;6.50;79.60
1103;DHT22;538;42.654;23.376;2022-09-23T04:13:30;6.60;80.10
1103;DHT22;538;42.654;23.376;2022-09-23T04:15:57;6.50;79.70
1103;DHT22;538;42.654;23.376;2022-09-23T04:18:24;6.60;79.40
1103;DHT22;538;42.654;23.376;2022-09-23T04:20:55;6.70;79.30
1103;DHT22;538;42.654;23.376;2022-09-23T04:23:24;6.50;78.40
1103;DHT22;538;42.654;23.376;2022-09-23T04:25:52;6.30;78.30
1103;DHT22;538;42.654;23.376;2022-09-23T04:28:19;6.30;79.40
1103;DHT22;538;42.654;23.376;2022-09-23T04:30:47;6.30;79.40
1103;DHT22;538;42.654;23.376;2022-09-23T04:33:15;6.40;79.70
1103;DHT22;538;42.654;23.376;2022-09-23T04:35:42;6.40;79.50
1103;DHT22;538;42.654;23.376;2022-09-23T04:38:10;6.30;79.30
1103;DHT22;538;42.654;23.376;2022-09-23T04:40:39;6.40;79.60
1103;DHT22;538;42.654;23.376;2022-09-23T04:43:06;6.50;79.90
1103;DHT22;538;42.654;23.376;2022-09-23T04:45:34;6.20;80.20
1103;DHT22;538;42.654;23.376;2022-09-23T04:48:04;6.30;79.50
1103;DHT22;538;42.654;23.376;2022-09-23T04:50:32;6.30;78.90
1103;DHT22;538;42.654;23.376;2022-09-23T04:52:59;6.20;78.80
1103;DHT22;538;42.654;23.376;2022-09-23T04:55:27;6.30;78.80
1103;DHT22;538;42.654;23.376;2022-09-23T04:57:58;6.50;79.10
1103;DHT22;538;42.654;23.376;2022-09-23T05:00:25;6.60;78.00
1103;DHT22;538;42.654;23.376;2022-09-23T05:02:57;6.60;75.80
1103;DHT22;538;42.654;23.376;2022-09-23T05:05:25;6.60;73.60
1103;DHT22;538;42.654;23.376;2022-09-23T05:07:54;6.70;73.80
1103;DHT22;538;42.654;23.376;2022-09-23T05:10:21;6.80;73.90
1103;DHT22;538;42.654;23.376;2022-09-23T05:12:48;6.80;73.90
1103;DHT22;538;42.654;23.376;2022-09-23T05:15:17;7.10;73.00
1103;DHT22;538;42.654;23.376;2022-09-23T05:17:45;7.20;71.10
1103;DHT22;538;42.654;23.376;2022-09-23T05:20:12;7.40;68.70
1103;DHT22;538;42.654;23.376;2022-09-23T05:22:39;7.40;67.70
1103;DHT22;538;42.654;23.376;2022-09-23T05:25:07;7.40;70.80
1103;DHT22;538;42.654;23.376;2022-09-23T05:27:35;7.40;73.80
1103;DHT22;538;42.654;23.376;2022-09-23T05:30:02;7.30;77.30
1103;DHT22;538;42.654;23.376;2022-09-23T05:32:31;7.40;80.10
1103;DHT22;538;42.654;23.376;2022-09-23T05:34:58;7.40;82.00
1103;DHT22;538;42.654;23.376;2022-09-23T05:37:25;7.60;83.40
1103;DHT22;538;42.654;23.376;2022-09-23T05:39:52;7.60;82.50
1103;DHT22;538;42.654;23.376;2022-09-23T05:42:19;7.70;81.60
1103;DHT22;538;42.654;23.376;2022-09-23T05:44:46;7.70;80.80
1103;DHT22;538;42.654;23.376;2022-09-23T05:47:13;7.80;81.00
1103;DHT22;538;42.654;23.376;2022-09-23T05:49:42;7.90;80.90
1103;DHT22;538;42.654;23.376;2022-09-23T05:52:09;7.90;80.40
1103;DHT22;538;42.654;23.376;2022-09-23T05:54:36;8.10;78.80
1103;DHT22;538;42.654;23.376;2022-09-23T05:57:03;8.20;75.50
1103;DHT22;538;42.654;23.376;2022-09-23T05:59:31;8.30;72.10
1103;DHT22;538;42.654;23.376;2022-09-23T06:01:58;8.40;68.60
1103;DHT22;538;42.654;23.376;2022-09-23T06:04:26;8.40;64.20
1103;DHT22;538;42.654;23.376;2022-09-23T06:06:55;8.60;62.90
1103;DHT22;538;42.654;23.376;2022-09-23T06:09:23;8.50;60.10
1103;DHT22;538;42.654;23.376;2022-09-23T06:11:50;8.70;58.80
1103;DHT22;538;42.654;23.376;2022-09-23T06:14:17;8.70;58.00
1103;DHT22;538;42.654;23.376;2022-09-23T06:16:44;8.70;57.20
1103;DHT22;538;42.654;23.376;2022-09-23T06:19:11;8.80;55.30
1103;DHT22;538;42.654;23.376;2022-09-23T06:21:39;8.80;53.60
1103;DHT22;538;42.654;23.376;2022-09-23T06:24:08;9.00;53.30
1103;DHT22;538;42.654;23.376;2022-09-23T06:26:35;9.00;53.80
1103;DHT22;538;42.654;23.376;2022-09-23T06:29:06;8.90;53.90
1103;DHT22;538;42.654;23.376;2022-09-23T06:31:34;9.10;52.40
1103;DHT22;538;42.654;23.376;2022-09-23T06:34:01;9.00;50.90
1103;DHT22;538;42.654;23.376;2022-09-23T06:36:29;9.10;51.10
1103;DHT22;538;42.654;23.376;2022-09-23T06:38:56;9.10;50.30
1103;DHT22;538;42.654;23.376;2022-09-23T06:41:24;9.20;47.50
1103;DHT22;538;42.654;23.376;2022-09-23T06:43:52;9.10;48.30
1103;DHT22;538;42.654;23.376;2022-09-23T06:46:19;9.10;48.30
1103;DHT22;538;42.654;23.376;2022-09-23T06:48:46;9.20;50.70
1103;DHT22;538;42.654;23.376;2022-09-23T06:51:16;9.20;52.30
1103;DHT22;538;42.654;23.376;2022-09-23T06:53:52;9.30;50.10
1103;DHT22;538;42.654;23.376;2022-09-23T06:56:34;9.30;49.10
1103;DHT22;538;42.654;23.376;2022-09-23T06:59:01;9.30;47.40
1103;DHT22;538;42.654;23.376;2022-09-23T07:01:29;9.40;45.70
1103;DHT22;538;42.654;23.376;2022-09-23T07:03:56;9.50;47.90
1103;DHT22;538;42.654;23.376;2022-09-23T07:06:23;9.60;46.60
1103;DHT22;538;42.654;23.376;2022-09-23T07:08:50;9.40;44.20
1103;DHT22;538;42.654;23.376;2022-09-23T07:11:17;9.50;43.00
1103;DHT22;538;42.654;23.376;2022-09-23T07:13:48;9.60;44.40
1103;DHT22;538;42.654;23.376;2022-09-23T07:16:15;9.60;44.00
1103;DHT22;538;42.654;23.376;2022-09-23T07:18:47;9.70;44.20
1103;DHT22;538;42.654;23.376;2022-09-23T07:21:23;9.70;43.50
1103;DHT22;538;42.654;23.376;2022-09-23T07:23:50;9.90;44.10
1103;DHT22;538;42.654;23.376;2022-09-23T07:26:18;9.90;43.60
1103;DHT22;538;42.654;23.376;2022-09-23T07:28:51;10.00;42.30
1103;DHT22;538;42.654;23.376;2022-09-23T07:31:19;10.10;42.70
1103;DHT22;538;42.654;23.376;2022-09-23T07:33:46;10.20;40.00
1103;DHT22;538;42.654;23.376;2022-09-23T07:36:16;10.40;39.50
1103;DHT22;538;42.654;23.376;2022-09-23T07:38:45;10.50;37.40
1103;DHT22;538;42.654;23.376;2022-09-23T07:41:13;10.60;35.90
1103;DHT22;538;42.654;23.376;2022-09-23T07:43:41;10.50;34.80
1103;DHT22;538;42.654;23.376;2022-09-23T07:46:12;10.60;37.10
1103;DHT22;538;42.654;23.376;2022-09-23T07:48:40;10.70;36.20
1103;DHT22;538;42.654;23.376;2022-09-23T07:51:09;10.90;37.00
1103;DHT22;538;42.654;23.376;2022-09-23T07:53:36;11.00;36.10
1103;DHT22;538;42.654;23.376;2022-09-23T07:56:04;11.20;35.00
1103;DHT22;538;42.654;23.376;2022-09-23T07:58:32;11.50;33.70
1103;DHT22;538;42.654;23.376;2022-09-23T08:01:04;11.50;30.70
1103;DHT22;538;42.654;23.376;2022-09-23T08:03:35;11.50;29.30
1103;DHT22;538;42.654;23.376;2022-09-23T08:06:08;11.70;30.00
1103;DHT22;538;42.654;23.376;2022-09-23T08:08:35;11.80;28.90
1103;DHT22;538;42.654;23.376;2022-09-23T08:11:05;11.80;28.60
1103;DHT22;538;42.654;23.376;2022-09-23T08:13:35;12.00;28.60
1103;DHT22;538;42.654;23.376;2022-09-23T08:16:02;12.00;27.50
1103;DHT22;538;42.654;23.376;2022-09-23T08:18:30;12.10;26.70
1103;DHT22;538;42.654;23.376;2022-09-23T08:20:58;12.30;26.50
1103;DHT22;538;42.654;23.376;2022-09-23T08:23:25;12.40;25.90
1103;DHT22;538;42.654;23.376;2022-09-23T08:25:58;12.40;24.10
1103;DHT22;538;42.654;23.376;2022-09-23T08:28:27;12.20;23.50
1103;DHT22;538;42.654;23.376;2022-09-23T08:30:54;12.30;24.40
1103;DHT22;538;42.654;23.376;2022-09-23T08:33:22;12.40;24.60
1103;DHT22;538;42.654;23.376;2022-09-23T08:35:50;12.70;24.70
1103;DHT22;538;42.654;23.376;2022-09-23T08:38:19;12.90;20.30
1103;DHT22;538;42.654;23.376;2022-09-23T08:40:48;12.90;21.00
1103;DHT22;538;42.654;23.376;2022-09-23T08:43:23;13.10;20.40
1103;DHT22;538;42.654;23.376;2022-09-23T08:45:52;13.20;21.70
1103;DHT22;538;42.654;23.376;2022-09-23T08:48:27;13.60;20.90
1103;DHT22;538;42.654;23.376;2022-09-23T08:51:00;13.90;19.50
1103;DHT22;538;42.654;23.376;2022-09-23T08:53:32;14.20;18.10
1103;DHT22;538;42.654;23.376;2022-09-23T08:56:11;14.50;17.20
1103;DHT22;538;42.654;23.376;2022-09-23T08:58:52;14.60;16.80
1103;DHT22;538;42.654;23.376;2022-09-23T09:01:25;15.00;16.30
1103;DHT22;538;42.654;23.376;2022-09-23T09:03:55;15.30;15.40
1103;DHT22;538;42.654;23.376;2022-09-23T09:06:28;15.50;13.40
1103;DHT22;538;42.654;23.376;2022-09-23T09:08:59;15.70;14.00
1103;DHT22;538;42.654;23.376;2022-09-23T09:11:33;15.70;13.90
1103;DHT22;538;42.654;23.376;2022-09-23T09:14:13;16.30;14.60
1103;DHT22;538;42.654;23.376;2022-09-23T09:16:57;16.60;12.20
1103;DHT22;538;42.654;23.376;2022-09-23T09:19:45;16.60;11.50
1103;DHT22;538;42.654;23.376;2022-09-23T09:22:19;17.10;10.90
1103;DHT22;538;42.654;23.376;2022-09-23T09:24:52;17.60;9.30
1103;DHT22;538;42.654;23.376;2022-09-23T09:27:23;17.50;8.40
1103;DHT22;538;42.654;23.376;2022-09-23T09:29:51;17.90;8.00
1103;DHT22;538;42.654;23.376;2022-09-23T09:32:27;18.60;7.50
1103;DHT22;538;42.654;23.376;2022-09-23T09:35:03;18.90;7.70
1103;DHT22;538;42.654;23.376;2022-09-23T09:37:35;18.80;7.40
1103;DHT22;538;42.654;23.376;2022-09-23T09:40:09;18.90;7.40
1103;DHT22;538;42.654;23.376;2022-09-23T09:42:38;19.20;4.80
1103;DHT22;538;42.654;23.376;2022-09-23T09:45:14;19.30;4.50
1103;DHT22;538;42.654;23.376;2022-09-23T09:47:50;19.90;5.70
1103;DHT22;538;42.654;23.376;2022-09-23T09:50:43;20.50;4.70
1103;DHT22;538;42.654;23.376;2022-09-23T09:53:20;20.30;4.50
1103;DHT22;538;42.654;23.376;2022-09-23T09:56:02;20.60;4.40
1103;DHT22;538;42.654;23.376;2022-09-23T09:58:34;21.00;3.20
1103;DHT22;538;42.654;23.376;2022-09-23T10:01:20;21.70;2.20
1103;DHT22;538;42.654;23.376;2022-09-23T10:03:48;22.20;2.10
1103;DHT22;538;42.654;23.376;2022-09-23T10:06:19;22.30;1.20
1103;DHT22;538;42.654;23.376;2022-09-23T10:11:31;23.40;1.00
1103;DHT22;538;42.654;23.376;2022-09-23T10:14:04;23.30;1.00
1103;DHT22;538;42.654;23.376;2022-09-23T10:16:34;23.20;1.00
1103;DHT22;538;42.654;23.376;2022-09-23T10:19:13;23.70;1.00
1103;DHT22;538;42.654;23.376;2022-09-23T10:21:41;26.30;1.00
1103;DHT22;538;42.654;23.376;2022-09-23T10:24:19;24.40;1.00
1103;DHT22;538;42.654;23.376;2022-09-23T10:26:54;25.60;1.00
1103;DHT22;538;42.654;23.376;2022-09-23T10:29:27;25.30;1.00
1103;DHT22;538;42.654;23.376;2022-09-23T10:32:25;24.90;1.00
1103;DHT22;538;42.654;23.376;2022-09-23T10:35:01;25.10;1.00
1103;DHT22;538;42.654;23.376;2022-09-23T10:37:32;26.50;1.00
1103;DHT22;538;42.654;23.376;2022-09-23T10:40:00;27.10;1.00
1103;DHT22;538;42.654;23.376;2022-09-23T10:43:07;26.90;1.00
1103;DHT22;538;42.654;23.376;2022-09-23T10:45:58;26.30;1.00
1103;DHT22;538;42.654;23.376;2022-09-23T10:48:55;26.40;1.00
1103;DHT22;538;42.654;23.376;2022-09-23T10:51:31;27.30;1.00
1103;DHT22;538;42.654;23.376;2022-09-23T10:54:02;28.40;1.00
1103;DHT22;538;42.654;23.376;2022-09-23T10:56:35;28.20;1.00
1103;DHT22;538;42.654;23.376;2022-09-23T11:02:27;28.40;1.00
1103;DHT22;538;42.654;23.376;2022-09-23T11:05:13;28.10;1.00
1103;DHT22;538;42.654;23.376;2022-09-23T11:07:47;27.00;1.00
1103;DHT22;538;42.654;23.376;2022-09-23T11:10:47;27.70;1.00
1103;DHT22;538;42.654;23.376;2022-09-23T11:13:27;27.80;1.00
1103;DHT22;538;42.654;23.376;2022-09-23T11:16:11;27.80;1.00
1103;DHT22;538;42.654;23.376;2022-09-23T11:19:01;27.70;1.00
1103;DHT22;538;42.654;23.376;2022-09-23T11:21:50;28.50;1.00
1103;DHT22;538;42.654;23.376;2022-09-23T11:24:52;27.40;1.00
1103;DHT22;538;42.654;23.376;2022-09-23T11:27:33;26.60;1.00
1103;DHT22;538;42.654;23.376;2022-09-23T11:30:06;26.90;1.00
1103;DHT22;538;42.654;23.376;2022-09-23T11:35:30;26.70;1.00
1103;DHT22;538;42.654;23.376;2022-09-23T11:38:04;26.60;1.00
1103;DHT22;538;42.654;23.376;2022-09-23T11:40:35;28.10;1.00
1103;DHT22;538;42.654;23.376;2022-09-23T11:43:05;27.40;1.00
1103;DHT22;538;42.654;23.376;2022-09-23T11:45:41;27.80;1.00
1103;DHT22;538;42.654;23.376;2022-09-23T11:48:16;27.90;1.00
1103;DHT22;538;42.654;23.376;2022-09-23T11:50:46;27.50;1.00
1103;DHT22;538;42.654;23.376;2022-09-23T11:53:18;27.40;1.00
1103;DHT22;538;42.654;23.376;2022-09-23T11:55:52;28.20;1.00
1103;DHT22;538;42.654;23.376;2022-09-23T11:58:24;28.00;1.00
1103;DHT22;538;42.654;23.376;2022-09-23T12:00:57;27.30;1.00
1103;DHT22;538;42.654;23.376;2022-09-23T12:03:37;27.90;1.00
1103;DHT22;538;42.654;23.376;2022-09-23T12:06:13;28.80;1.00
1103;DHT22;538;42.654;23.376;2022-09-23T12:08:41;28.30;1.00
1103;DHT22;538;42.654;23.376;2022-09-23T12:11:20;27.90;1.00
1103;DHT22;538;42.654;23.376;2022-09-23T12:13:51;28.20;1.00
1103;DHT22;538;42.654;23.376;2022-09-23T12:16:35;27.80;1.00
1103;DHT22;538;42.654;23.376;2022-09-23T12:19:17;28.20;1.00
1103;DHT22;538;42.654;23.376;2022-09-23T12:24:56;28.60;1.00
1103;DHT22;538;42.654;23.376;2022-09-23T12:27:33;29.30;1.00
1103;DHT22;538;42.654;23.376;2022-09-23T12:30:05;29.10;1.00
1103;DHT22;538;42.654;23.376;2022-09-23T12:32:32;28.40;1.00
1103;DHT22;538;42.654;23.376;2022-09-23T12:35:01;25.00;1.00
1103;DHT22;538;42.654;23.376;2022-09-23T12:37:33;23.60;1.00
1103;DHT22;538;42.654;23.376;2022-09-23T12:40:07;22.40;1.00
1103;DHT22;538;42.654;23.376;2022-09-23T12:42:40;21.20;1.00
1103;DHT22;538;42.654;23.376;2022-09-23T12:45:31;20.90;1.00
1103;DHT22;538;42.654;23.376;2022-09-23T12:47:59;21.40;1.00
1103;DHT22;538;42.654;23.376;2022-09-23T12:50:54;21.80;1.00
1103;DHT22;538;42.654;23.376;2022-09-23T12:53:48;21.70;1.00
1103;DHT22;538;42.654;23.376;2022-09-23T12:56:19;21.90;1.00
1103;DHT22;538;42.654;23.376;2022-09-23T12:59:01;22.00;1.00
1103;DHT22;538;42.654;23.376;2022-09-23T13:01:36;21.90;1.00
1103;DHT22;538;42.654;23.376;2022-09-23T13:04:03;21.60;1.00
1103;DHT22;538;42.654;23.376;2022-09-23T13:06:55;20.80;1.00
1103;DHT22;538;42.654;23.376;2022-09-23T13:09:26;20.00;1.00
1103;DHT22;538;42.654;23.376;2022-09-23T13:11:57;19.60;1.00
1103;DHT22;538;42.654;23.376;2022-09-23T13:14:26;19.60;1.00
1103;DHT22;538;42.654;23.376;2022-09-23T13:16:55;19.60;1.00
1103;DHT22;538;42.654;23.376;2022-09-23T13:19:43;19.20;1.00
1103;DHT22;538;42.654;23.376;2022-09-23T13:22:12;19.20;1.00
1103;DHT22;538;42.654;23.376;2022-09-23T13:24:51;19.50;1.50
1103;DHT22;538;42.654;23.376;2022-09-23T13:27:30;19.70;1.10
1103;DHT22;538;42.654;23.376;2022-09-23T13:30:00;19.60;1.20
1103;DHT22;538;42.654;23.376;2022-09-23T13:32:31;19.90;1.00
1103;DHT22;538;42.654;23.376;2022-09-23T13:35:02;20.30;1.00
1103;DHT22;538;42.654;23.376;2022-09-23T13:37:41;20.30;1.00
1103;DHT22;538;42.654;23.376;2022-09-23T13:40:16;20.20;1.00
1103;DHT22;538;42.654;23.376;2022-09-23T13:42:47;20.30;1.00
1103;DHT22;538;42.654;23.376;2022-09-23T13:45:17;20.60;1.00
1103;DHT22;538;42.654;23.376;2022-09-23T13:47:46;20.60;1.00
1103;DHT22;538;42.654;23.376;2022-09-23T13:50:16;20.60;1.00
1103;DHT22;538;42.654;23.376;2022-09-23T13:52:50;20.50;1.00
1103;DHT22;538;42.654;23.376;2022-09-23T13:55:26;20.60;1.00
1103;DHT22;538;42.654;23.376;2022-09-23T13:58:01;20.80;1.00
1103;DHT22;538;42.654;23.376;2022-09-23T14:00:34;20.30;1.00
1103;DHT22;538;42.654;23.376;2022-09-23T14:03:14;20.20;1.00
1103;DHT22;538;42.654;23.376;2022-09-23T14:05:42;20.20;1.00
1103;DHT22;538;42.654;23.376;2022-09-23T14:08:11;20.10;1.00
1103;DHT22;538;42.654;23.376;2022-09-23T14:10:38;20.30;1.00
1103;DHT22;538;42.654;23.376;2022-09-23T14:13:14;20.50;1.00
1103;DHT22;538;42.654;23.376;2022-09-23T14:18:15;20.90;1.00
1103;DHT22;538;42.654;23.376;2022-09-23T14:20:48;20.70;1.00
1103;DHT22;538;42.654;23.376;2022-09-23T14:23:16;20.10;1.00
1103;DHT22;538;42.654;23.376;2022-09-23T14:25:44;19.60;1.00
1103;DHT22;538;42.654;23.376;2022-09-23T14:28:14;19.20;1.20
1103;DHT22;538;42.654;23.376;2022-09-23T14:30:42;19.30;1.30
1103;DHT22;538;42.654;23.376;2022-09-23T14:33:14;19.50;1.50
1103;DHT22;538;42.654;23.376;2022-09-23T14:35:45;19.50;1.10
1103;DHT22;538;42.654;23.376;2022-09-23T14:38:22;19.50;1.30
1103;DHT22;538;42.654;23.376;2022-09-23T14:41:20;19.40;1.50
1103;DHT22;538;42.654;23.376;2022-09-23T14:43:51;19.10;1.40
1103;DHT22;538;42.654;23.376;2022-09-23T14:46:21;18.80;1.60
1103;DHT22;538;42.654;23.376;2022-09-23T14:48:58;18.70;2.00
1103;DHT22;538;42.654;23.376;2022-09-23T14:51:42;18.70;1.60
1103;DHT22;538;42.654;23.376;2022-09-23T14:54:39;18.60;1.70
1103;DHT22;538;42.654;23.376;2022-09-23T14:57:24;18.50;1.40
1103;DHT22;538;42.654;23.376;2022-09-23T14:59:53;18.30;1.80
1103;DHT22;538;42.654;23.376;2022-09-23T15:02:32;18.00;2.50
1103;DHT22;538;42.654;23.376;2022-09-23T15:05:16;17.70;3.10
1103;DHT22;538;42.654;23.376;2022-09-23T15:07:46;17.50;2.70
1103;DHT22;538;42.654;23.376;2022-09-23T15:10:20;17.60;3.40
1103;DHT22;538;42.654;23.376;2022-09-23T15:12:49;17.60;5.00
1103;DHT22;538;42.654;23.376;2022-09-23T15:15:18;17.50;4.50
1103;DHT22;538;42.654;23.376;2022-09-23T15:17:45;17.40;3.60
1103;DHT22;538;42.654;23.376;2022-09-23T15:20:19;17.50;3.90
1103;DHT22;538;42.654;23.376;2022-09-23T15:22:49;17.70;4.30
1103;DHT22;538;42.654;23.376;2022-09-23T15:25:20;17.80;3.20
1103;DHT22;538;42.654;23.376;2022-09-23T15:28:16;17.70;3.60
1103;DHT22;538;42.654;23.376;2022-09-23T15:30:45;17.10;4.30
1103;DHT22;538;42.654;23.376;2022-09-23T15:33:13;17.30;4.70
1103;DHT22;538;42.654;23.376;2022-09-23T15:35:44;17.50;4.70
1103;DHT22;538;42.654;23.376;2022-09-23T15:38:13;17.50;4.20
1103;DHT22;538;42.654;23.376;2022-09-23T15:40:43;17.60;4.60
1103;DHT22;538;42.654;23.376;2022-09-23T15:43:14;17.50;4.30
1103;DHT22;538;42.654;23.376;2022-09-23T15:45:45;17.50;4.50
1103;DHT22;538;42.654;23.376;2022-09-23T15:48:16;17.30;5.30
1103;DHT22;538;42.654;23.376;2022-09-23T15:50:47;17.10;5.80
1103;DHT22;538;42.654;23.376;2022-09-23T15:53:33;17.10;5.50
1103;DHT22;538;42.654;23.376;2022-09-23T15:59:05;16.30;5.90
1103;DHT22;538;42.654;23.376;2022-09-23T16:01:35;16.40;5.90
1103;DHT22;538;42.654;23.376;2022-09-23T16:04:03;16.40;6.40
1103;DHT22;538;42.654;23.376;2022-09-23T16:06:30;16.20;6.30
1103;DHT22;538;42.654;23.376;2022-09-23T16:09:00;16.00;7.30
1103;DHT22;538;42.654;23.376;2022-09-23T16:11:29;15.80;7.30
1103;DHT22;538;42.654;23.376;2022-09-23T16:13:58;15.80;7.30
1103;DHT22;538;42.654;23.376;2022-09-23T16:16:27;15.70;7.20
1103;DHT22;538;42.654;23.376;2022-09-23T16:18:55;15.40;7.30
1103;DHT22;538;42.654;23.376;2022-09-23T16:21:24;15.20;7.20
1103;DHT22;538;42.654;23.376;2022-09-23T16:23:52;15.10;7.50
1103;DHT22;538;42.654;23.376;2022-09-23T16:26:25;14.90;7.10
1103;DHT22;538;42.654;23.376;2022-09-23T16:28:54;14.90;7.50
1103;DHT22;538;42.654;23.376;2022-09-23T16:31:23;14.70;7.80
1103;DHT22;538;42.654;23.376;2022-09-23T16:33:55;14.70;8.10
1103;DHT22;538;42.654;23.376;2022-09-23T16:36:28;14.70;8.40
1103;DHT22;538;42.654;23.376;2022-09-23T16:38:56;14.60;8.80
1103;DHT22;538;42.654;23.376;2022-09-23T16:41:25;14.40;8.70
1103;DHT22;538;42.654;23.376;2022-09-23T16:43:54;14.40;9.00
1103;DHT22;538;42.654;23.376;2022-09-23T16:46:21;14.40;9.10
1103;DHT22;538;42.654;23.376;2022-09-23T16:48:49;14.20;9.20
1103;DHT22;538;42.654;23.376;2022-09-23T16:51:20;14.20;9.70
1103;DHT22;538;42.654;23.376;2022-09-23T16:53:57;13.60;9.70
1103;DHT22;538;42.654;23.376;2022-09-23T16:56:26;14.00;10.50
1103;DHT22;538;42.654;23.376;2022-09-23T16:58:54;13.80;10.40
1103;DHT22;538;42.654;23.376;2022-09-23T17:01:23;13.70;10.40
1103;DHT22;538;42.654;23.376;2022-09-23T17:04:08;13.70;10.30
1103;DHT22;538;42.654;23.376;2022-09-23T17:06:41;13.60;10.40